Latest Weather Observations for Flinders Reef

IDQ60801

Issued at 6:02 am EST Thursday 28 May 2015 (issued every 30 minutes, with the page automatically refreshed every 10 minutes)

About weather observations | Map of weather stations | Latest weather observations for QLD | Other Formats
Station Details ID: 200783 Name: FLINDERS REEF Lat: -17.72 Lon: 148.45 Height: 2.6 m
Data from the previous 72 hours. | See also: Recent months at Flinders Reef
Date/Time
EST
Temp
°C
App
Temp
°C
Dew
Point
Rel
Hum
%
Delta-T
°C
Wind Press
QNH
hPa
Press
MSL
hPa
Rain
since 9 am
mm
Dir
 
Spd
km/h
Gust
km/h
Spd
kts
Gust
kts
28/06:00am - - - - - ESE 35 39 19 21 1017.2 - -
28/05:30am - - - - - ESE 37 41 20 22 1017.0 - -
28/05:24am - - - - - ESE 35 - 19 - - 1016.9 -
28/05:00am - - - - - ESE 33 39 18 21 1016.8 - -
28/04:30am - - - - - ESE 35 39 19 21 1016.6 - -
28/04:24am - - - - - ESE 35 - 19 - - 1016.5 -
28/04:00am - - - - - ESE 37 44 20 24 1016.5 - -
28/03:30am - - - - - ESE 37 44 20 24 1016.3 - -
28/03:24am - - - - - ESE 35 - 19 - - 1016.2 -
28/03:00am - - - - - E 35 39 19 21 1016.2 - -
28/02:30am - - - - - E 37 43 20 23 1016.3 - -
28/02:24am - - - - - E 35 - 19 - - 1016.2 -
28/02:00am - - - - - E 37 43 20 23 1016.5 - -
28/01:30am - - - - - E 37 43 20 23 1016.9 - -
28/01:24am - - - - - E 37 - 20 - - 1016.8 -
28/01:00am - - - - - ESE 37 43 20 23 1017.1 - -
28/12:30am - - - - - ESE 39 44 21 24 1017.1 - -
28/12:24am - - - - - ESE 37 - 20 - - 1017.1 -
28/12:00am - - - - - E 39 46 21 25 1017.3 - -
 
Date/Time
EST
Temp
°C
App
Temp
°C
Dew
Point
Rel
Hum
%
Delta-T
°C
Wind Press
QNH
hPa
Press
MSL
hPa
Rain
since 9 am
mm
Dir
 
Spd
km/h
Gust
km/h
Spd
kts
Gust
kts
27/11:30pm - - - - - ESE 39 44 21 24 1017.5 - -
27/11:24pm - - - - - ESE 39 - 21 - - 1017.5 -
27/11:00pm - - - - - ESE 41 48 22 26 1017.9 - -
27/10:30pm - - - - - ESE 41 46 22 25 1018.2 - -
27/10:24pm - - - - - ESE 39 - 21 - - 1018.1 -
27/10:00pm - - - - - ESE 41 46 22 25 1018.3 - -
27/09:30pm - - - - - ESE 39 46 21 25 1018.2 - -
27/09:24pm - - - - - ESE 39 - 21 - - 1018.1 -
27/09:00pm - - - - - ESE 41 46 22 25 1018.3 - -
27/08:30pm - - - - - ESE 41 44 22 24 1018.1 - -
27/08:24pm - - - - - ESE 43 - 23 - - 1018.0 -
27/08:00pm - - - - - ESE 41 46 22 25 1017.8 - -
27/07:30pm - - - - - ESE 41 46 22 25 1017.4 - -
27/07:24pm - - - - - ESE 41 - 22 - - 1017.3 -
27/07:00pm - - - - - ESE 43 46 23 25 1017.2 - -
27/06:30pm - - - - - ESE 37 46 20 25 1016.8 - -
27/06:24pm - - - - - ESE 37 - 20 - - 1016.7 -
27/06:00pm - - - - - ESE 39 46 21 25 1016.6 - -
27/05:30pm - - - - - ESE 39 43 21 23 1016.5 - -
27/05:24pm - - - - - ESE 39 - 21 - - 1016.3 -
27/05:00pm - - - - - ESE 37 43 20 23 1016.3 - -
27/04:30pm - - - - - ESE 37 43 20 23 1016.2 - -
27/04:24pm - - - - - ESE 39 - 21 - - 1016.1 -
27/04:00pm - - - - - ESE 39 44 21 24 1016.2 - -
27/03:30pm - - - - - ESE 37 44 20 24 1016.1 - -
27/03:24pm - - - - - ESE 37 - 20 - - 1016.1 -
27/03:00pm - - - - - ESE 39 44 21 24 1016.2 - -
27/02:30pm - - - - - ESE 37 44 20 24 1016.2 - -
27/02:24pm - - - - - ESE 35 44 19 24 1016.2 1016.1 -
27/02:00pm - - - - - ESE 37 41 20 22 1016.3 - -
27/01:30pm - - - - - ESE 37 41 20 22 1016.5 - -
27/01:24pm - - - - - ESE 37 - 20 - - 1016.4 -
27/01:00pm - - - - - ESE 35 41 19 22 1016.8 - -
27/12:30pm - - - - - ESE 37 41 20 22 1017.3 - -
27/12:24pm - - - - - ESE 37 - 20 - - 1017.3 -
27/12:00pm - - - - - ESE 37 41 20 22 1017.7 - -
27/11:30am - - - - - ESE 33 41 18 22 1018.1 - -
27/11:24am - - - - - ESE 35 - 19 - - 1018.0 -
27/11:00am - - - - - ESE 35 39 19 21 1018.2 - -
27/10:30am - - - - - SE 33 39 18 21 1018.6 - -
27/10:24am - - - - - SE 33 - 18 - - 1018.5 -
27/10:00am - - - - - ESE 35 41 19 22 1018.8 - -
27/09:30am - - - - - ESE 35 39 19 21 1018.8 - -
27/09:24am - - - - - ESE 33 - 18 - - 1018.7 -
27/09:00am - - - - - ESE 33 39 18 21 1018.9 - -
27/08:30am - - - - - ESE 33 39 18 21 1018.7 - -
27/08:24am - - - - - ESE 33 - 18 - - 1018.5 -
27/08:00am - - - - - ESE 33 39 18 21 1018.5 - -
27/07:30am - - - - - ESE 33 39 18 21 1018.2 - -
27/07:24am - - - - - ESE 33 - 18 - - 1018.0 -
27/07:00am - - - - - SE 33 41 18 22 1017.9 - -
27/06:30am - - - - - ESE 35 41 19 22 1017.6 - -
27/06:24am - - - - - ESE 35 - 19 - - 1017.4 -
27/06:00am - - - - - ESE 35 39 19 21 1017.4 - -
27/05:30am - - - - - ESE 37 39 20 21 1017.2 - -
27/05:24am - - - - - ESE 35 - 19 - - 1017.0 -
27/05:00am - - - - - ESE 33 39 18 21 1016.9 - -
27/04:30am - - - - - E 35 41 19 22 1016.7 - -
27/04:24am - - - - - E 37 - 20 - - 1016.6 -
27/04:00am - - - - - E 35 43 19 23 1016.6 - -
27/03:30am - - - - - E 37 41 20 22 1016.8 - -
27/03:24am - - - - - E 37 - 20 - - 1016.9 -
27/03:00am - - - - - E 35 39 19 21 1017.2 - -
27/02:30am - - - - - E 33 37 18 20 1017.2 - -
27/02:24am - - - - - E 33 - 18 - - 1017.1 -
27/02:00am - - - - - E 32 39 17 21 1017.7 - -
27/01:30am - - - - - ESE 30 33 16 18 1018.0 - -
27/01:24am - - - - - ESE 28 - 15 - - 1017.9 -
27/01:00am - - - - - ESE 33 37 18 20 1018.2 - -
27/12:30am - - - - - ESE 33 39 18 21 1018.3 - -
27/12:24am - - - - - ESE 35 - 19 - - 1018.2 -
27/12:00am - - - - - ESE 33 39 18 21 1018.3 - -
 
Date/Time
EST
Temp
°C
App
Temp
°C
Dew
Point
Rel
Hum
%
Delta-T
°C
Wind Press
QNH
hPa
Press
MSL
hPa
Rain
since 9 am
mm
Dir
 
Spd
km/h
Gust
km/h
Spd
kts
Gust
kts
26/11:30pm - - - - - ESE 35 41 19 22 1018.8 - -
26/11:24pm - - - - - ESE 35 - 19 - - 1018.8 -
26/11:00pm - - - - - ESE 37 43 20 23 1019.0 - -
26/10:30pm - - - - - ESE 37 43 20 23 1019.2 - -
26/10:24pm - - - - - ESE 37 - 20 - - 1019.2 -
26/10:00pm - - - - - ESE 37 43 20 23 1019.4 - -
26/09:30pm - - - - - ESE 35 41 19 22 1019.4 - -
26/09:24pm - - - - - ESE 37 - 20 - - 1019.3 -
26/09:00pm - - - - - ESE 37 43 20 23 1019.2 - -
26/08:30pm - - - - - ESE 39 44 21 24 1019.2 - -
26/08:24pm - - - - - ESE 39 - 21 - - 1019.1 -
26/08:00pm - - - - - ESE 39 44 21 24 1019.0 - -
26/07:30pm - - - - - ESE 35 41 19 22 1018.9 - -
26/07:24pm - - - - - ESE 37 - 20 - - 1018.8 -
26/07:00pm - - - - - ESE 37 41 20 22 1018.7 - -
26/06:30pm - - - - - ESE 35 43 19 23 1018.5 - -
26/06:24pm - - - - - ESE 35 - 19 - - 1018.3 -
26/06:00pm - - - - - ESE 37 43 20 23 1018.1 - -
26/05:30pm - - - - - SE 39 43 21 23 1017.8 - -
26/05:24pm - - - - - SE 39 - 21 - - 1017.7 -
26/05:00pm - - - - - ESE 41 48 22 26 1017.8 - -
26/04:30pm - - - - - SE 41 46 22 25 1017.7 - -
26/04:24pm - - - - - ESE 39 - 21 - - 1017.5 -
26/04:00pm - - - - - SE 41 46 22 25 1017.5 - -
26/03:30pm - - - - - SE 39 46 21 25 1017.5 - -
26/03:24pm - - - - - SE 41 - 22 - - 1017.4 -
26/03:00pm - - - - - SE 37 44 20 24 1017.7 - -
26/02:30pm - - - - - SE 39 44 21 24 1017.9 - -
26/02:24pm - - - - - SE 41 - 22 - - 1017.8 -
26/02:00pm - - - - - SE 39 46 21 25 1018.0 - -
26/01:30pm - - - - - SE 39 46 21 25 1018.1 - -
26/01:24pm - - - - - SE 39 - 21 - - 1018.1 -
26/01:00pm - - - - - ESE 37 41 20 22 1018.7 - -
26/12:30pm - - - - - ESE 35 41 19 22 1019.4 - -
26/12:24pm - - - - - ESE 37 - 20 - - 1019.4 -
26/12:00pm - - - - - ESE 37 43 20 23 1019.8 - -
26/11:30am - - - - - ESE 37 44 20 24 1020.3 - -
26/11:24am - - - - - ESE 37 - 20 - - 1020.2 -
26/11:00am - - - - - ESE 35 41 19 22 1020.6 - -
26/10:30am - - - - - ESE 37 44 20 24 1020.9 - -
26/10:24am - - - - - ESE 39 - 21 - - 1020.8 -
26/10:00am - - - - - ESE 39 44 21 24 1021.0 - -
26/09:30am - - - - - SE 39 46 21 25 1021.0 - -
26/09:24am - - - - - SE 39 - 21 - - 1020.9 -
26/09:00am - - - - - SE 41 46 22 25 1020.9 - -
26/08:30am - - - - - ESE 41 48 22 26 1020.8 - -
26/08:24am - - - - - ESE 41 - 22 - - 1020.6 -
26/08:00am - - - - - ESE 43 46 23 25 1020.5 - -
26/07:30am - - - - - ESE 41 46 22 25 1020.4 - -
26/07:24am - - - - - ESE 43 - 23 - - 1020.3 -
26/07:00am - - - - - ESE 43 48 23 26 1020.2 - -
26/06:30am - - - - - ESE 43 48 23 26 1020.1 - -
26/06:24am - - - - - ESE 41 - 22 - - 1019.9 -
26/06:00am - - - - - ESE 41 46 22 25 1019.9 - -
26/05:30am - - - - - E 41 46 22 25 1019.6 - -
26/05:24am - - - - - E 41 - 22 - - 1019.4 -
26/05:00am - - - - - ESE 37 43 20 23 1019.4 - -
26/04:30am - - - - - ESE 41 46 22 25 1019.1 - -
26/04:24am - - - - - ESE 39 - 21 - - 1019.0 -
26/04:00am - - - - - ESE 41 46 22 25 1019.1 - -
26/03:30am - - - - - ESE 41 46 22 25 1019.0 - -
26/03:24am - - - - - ESE 43 - 23 - - 1018.9 -
26/03:00am - - - - - E 43 48 23 26 1019.2 - -
26/02:30am - - - - - ESE 39 43 21 23 1019.7 - -
26/02:24am - - - - - ESE 37 - 20 - - 1019.7 -
26/02:00am - - - - - ESE 37 46 20 25 1020.1 - -
26/01:30am - - - - - ESE 39 46 21 25 1020.4 - -
26/01:24am - - - - - ESE 41 - 22 - - 1020.4 -
26/01:00am - - - - - ESE 41 46 22 25 1020.5 - -
26/12:50am - - - - - ESE 41 44 22 24 1020.5 - -
26/12:38am - - - - - E 44 54 24 29 1020.6 - -
26/12:30am - - - - - ESE 43 50 23 27 1020.6 - -
26/12:24am - - - - - ESE 39 - 21 - - 1020.5 -
26/12:00am - - - - - ESE 43 50 23 27 1020.7 - -
 
Date/Time
EST
Temp
°C
App
Temp
°C
Dew
Point
Rel
Hum
%
Delta-T
°C
Wind Press
QNH
hPa
Press
MSL
hPa
Rain
since 9 am
mm
Dir
 
Spd
km/h
Gust
km/h
Spd
kts
Gust
kts
25/11:30pm - - - - - ESE 41 46 22 25 1020.8 - -
25/11:24pm - - - - - ESE 43 - 23 - - 1020.7 -
25/11:00pm - - - - - ESE 43 50 23 27 1020.9 - -
25/10:30pm - - - - - E 43 50 23 27 1021.3 - -
25/10:24pm - - - - - E 44 - 24 - - 1021.2 -
25/10:00pm - - - - - ESE 44 52 24 28 1021.2 - -
25/09:30pm - - - - - E 44 52 24 28 1021.1 - -
25/09:24pm - - - - - ESE 44 - 24 - - 1020.9 -
25/09:00pm - - - - - ESE 44 50 24 27 1021.0 - -
25/08:30pm - - - - - ESE 46 52 25 28 1020.8 - -
25/08:24pm - - - - - ESE 44 - 24 - - 1020.7 -
25/08:00pm - - - - - ESE 41 52 22 28 1020.7 - -
25/07:30pm - - - - - SE 43 52 23 28 1020.3 - -
25/07:24pm - - - - - SE 43 - 23 - - 1020.3 -
25/07:00pm - - - - - ESE 44 50 24 27 1020.1 - -
25/06:30pm - - - - - ESE 44 50 24 27 1019.8 - -
25/06:24pm - - - - - ESE 43 - 23 - - 1019.7 -
25/06:00pm - - - - - ESE 41 46 22 25 1019.6 - -
25/05:30pm - - - - - SE 43 48 23 26 1019.5 - -
25/05:24pm - - - - - SE 41 - 22 - - 1019.4 -
25/05:00pm - - - - - ESE 39 48 21 26 1019.4 - -
25/04:30pm - - - - - ESE 41 46 22 25 1019.3 - -
25/04:24pm - - - - - ESE 41 - 22 - - 1019.2 -
25/04:00pm - - - - - ESE 41 46 22 25 1019.1 - -
25/03:30pm - - - - - SE 41 46 22 25 1019.1 - -
25/03:24pm - - - - - SE 39 - 21 - - 1019.0 -
25/03:00pm - - - - - ESE 41 46 22 25 1019.3 - -
25/02:30pm - - - - - ESE 39 46 21 25 1019.3 - -
25/02:24pm - - - - - ESE 39 - 21 - - 1019.2 -
25/02:00pm - - - - - ESE 39 43 21 23 1019.3 - -
25/01:30pm - - - - - ESE 41 48 22 26 1019.5 - -
25/01:24pm - - - - - ESE 39 - 21 - - 1019.5 -
25/01:00pm - - - - - ESE 43 46 23 25 1019.9 - -
25/12:30pm - - - - - ESE 43 48 23 26 1020.4 - -
25/12:24pm - - - - - ESE 43 - 23 - - 1020.4 -
25/12:00pm - - - - - ESE 41 48 22 26 1020.8 - -
25/11:30am - - - - - ESE 43 50 23 27 1021.1 - -
25/11:24am - - - - - ESE 44 - 24 - - 1021.1 -
25/11:00am - - - - - ESE 44 52 24 28 1021.3 - -
25/10:30am - - - - - ESE 44 52 24 28 1021.4 - -
25/10:24am - - - - - ESE 46 - 25 - - 1021.3 -
25/10:00am - - - - - ESE 43 52 23 28 1021.6 - -
25/09:30am - - - - - ESE 43 48 23 26 1021.7 - -
25/09:24am - - - - - ESE 44 - 24 - - 1021.6 -
25/09:00am - - - - - ESE 43 50 23 27 1021.9 - -
25/08:30am - - - - - ESE 46 56 25 30 1021.7 - -
25/08:24am - - - - - ESE 48 - 26 - - 1021.4 -
25/08:00am - - - - - ESE 46 56 25 30 1021.3 - -
25/07:30am - - - - - ESE 48 57 26 31 1020.8 - -
25/07:24am - - - - - ESE 48 - 26 - - 1020.6 -
25/07:00am - - - - - ESE 48 59 26 32 1020.5 - -
25/06:30am - - - - - ESE 50 57 27 31 1019.9 - -
25/06:24am - - - - - ESE 50 - 27 - - 1019.7 -

Other Formats:

Comma delimited format used in spreadsheet applications
http://www.bom.gov.au/fwo/IDQ60801/IDQ60801.94290.axf

JavaScript Object Notation format (JSON) in row-major order
http://www.bom.gov.au/fwo/IDQ60801/IDQ60801.94290.json